Warning: Javascript must be enabled to use all the features on this page!


Page Loading - Please Wait...

* We've detected you're using a mobile device. Find our Next Generation Station Page here.
Click to hideNews Bulletins
Click to hide state-specific text

During the winter, river stage may be significantly affected by backwater from ice, resulting in incorrect discharge data. Consequently, discharge data may not be displayed during periods of ice effect.

Current Conditions for Wisconsin: Streamflow -- 247 site(s) found

PROVISIONAL DATA SUBJECT TO REVISION





Customize table to display other current-condition parameters
Station
Number
Station name Date/Time Gage
height,
feet
Dis-
charge,
ft3/s
Long-
term
median
flow
12/4
04024430 NEMADJI RIVER NEAR SOUTH SUPERIOR, WI  12/04 20:00 CST -- Ice 150 
      [Primary Stage]  12/04 20:00 CST 5.98 --     --- 
04025500 BOIS BRULE RIVER AT BRULE, WI  12/04 20:00 CST 1.69 159 147 
040263205 WHITTLESEY CREEK NEAR ASHLAND, WI  12/04 20:15 CST 1.63 18.5 19.0 
04026390 BEARTRAP CREEK AT U.S. HIGHWAY 2 NEAR ASHLAND, WI  12/04 20:00 CST 4.86 --     --- 
    08/11 12:45 CDT -- 30.5 3.10 
04026561 TYLER FORKS RIVER AT STRICKER ROAD NEAR MELLEN, WI  12/04 20:30 CST 3.69 46.0 68.0 
04027000 BAD RIVER NEAR ODANAH, WI  12/04 20:45 CST 3.10 381 290 
04027500 WHITE RIVER NEAR ASHLAND, WI  12/04 20:15 CST 1.01 261 197 
04027595 BAD RIVER AT ODANAH, WI  12/04 20:00 CST 2.90 --     --- 
04060993 BRULE RIVER AT US HIGHWAY 2 NEAR FLORENCE, WI  12/04 20:30 CST 4.14 453 282 
04062011 BRULE RIVER NEAR COMMONWEALTH, WI  12/04 20:30 CST 7.24 687 412 
04063000 MENOMINEE RIVER NEAR FLORENCE, WI  12/04 20:00 CST 5.32 2,760 1,400 
04063700 POPPLE RIVER NEAR FENCE, WI  12/04 20:15 CST 2.52 94.9 70.0 
04064500 PINE RIVER BELOW PINE R POWERPLANT NR FLORENCE, WI  12/04 19:45 CST 2.95 474 268 
04065106 MENOMINEE RIVER AT NIAGARA, WI  12/04 20:00 CST 7.38 2,990 1,530 
04065722 MENOMINEE RIVER NEAR VULCAN, MI  12/04 20:00 CST 7.34 3,470 1,860 
04066003 MENOMINEE RIVER BELOW PEMENE CREEK NR PEMBINE, WI  12/04 20:00 CST 8.78 3,520 2,100 
04066030 MENOMINEE RIVER AT WHITE RAPIDS DAM NEAR BANAT, MI  12/02 23:30 CST 7.91 3,410 1,830 
04066500 PIKE RIVER AT AMBERG, WI  12/04 20:00 CST 3.18 235 171 
04066800 MENOMINEE RIVER AT KOSS, MI  12/04 19:30 CST 10.99 3,790 2,120 
04067500 MENOMINEE RIVER NEAR MC ALLISTER, WI  12/04 20:15 CST 10.49 3,980 2,410 
04067958 PESHTIGO RIVER NEAR WABENO, WI  12/04 20:15 CST 4.59 466 255 
04069416 PESHTIGO RIVER AT PORTERFIELD, WI  12/04 18:05 CST 8.77 1,000 582 
04069500 PESHTIGO RIVER AT PESHTIGO, WI  12/04 20:00 CST 2.63 962 642 
04071000 OCONTO RIVER NEAR GILLETT, WI  12/04 20:00 CST 2.01 723 470 
04071765 OCONTO RIVER NEAR OCONTO, WI  12/04 20:00 CST 5.10 790 506 
04072076 SILVER CREEK AT FLORIST DRIVE AT ONEIDA, WI  12/04 20:00 CST 2.76 Ice 1.30 
04073240 CHAFFEE CREEK AT I-39 NEAR COLOMA, WI  12/04 20:00 CST 3.69 13.8     --- 
04073365 FOX RIVER AT PRINCETON, WI  12/04 20:00 CST 7.67 1,620 780 
040734605 GREEN LAKE SW INLET @ CT HIGHWY K NR GREEN LAKE,WI 
      [(2)]  12/04 20:00 CST 6.35 --     --- 
      [(4)]  12/04 20:00 CST -- 30.1 12.0 
040734615 HILL CREEK NR MOUTH NEAR GREEN LAKE, WI  12/04 20:00 CST 4.81 3.28     --- 
04073462 WHITE CREEK AT SPRING GROVE ROAD NR GREEN LAKE, WI  12/04 20:00 CST 4.32 2.74 .64 
04073466 SILVER CREEK AT SPAULDING ROAD NEAR GREEN LAKE, WI  12/04 20:00 CST -- 47.7 40.0 
      [5-min Stage]  12/04 20:00 CST 6.68 --     --- 
04073500 FOX RIVER AT BERLIN, WI  12/04 20:00 CST 11.64 2,000 939 
04074950 WOLF RIVER AT LANGLADE, WI  12/04 20:15 CST 8.29 486 350 
04077630 RED RIVER AT MORGAN ROAD NEAR MORGAN, WI  12/04 20:15 CST 6.09 Ice 110 
04078500 EMBARRASS RIVER NEAR EMBARRASS, WI  12/04 20:00 CST 3.24 293 190 
04079000 WOLF RIVER AT NEW LONDON, WI  12/04 20:00 CST -- 2,220 1,340 
      [(2)]  12/04 20:00 CST 5.00 --     --- 
04080798 TOMORROW RIVER NEAR NELSONVILLE, WI  12/04 20:00 CST 8.65 30.1 31.0 
04082400 FOX RIVER AT OSHKOSH, WI  12/04 20:00 CST 5.85 --     --- 
      [(4)]  12/04 20:00 CST -- 3,890 3,430 
04082500 LAKE WINNEBAGO AT OSHKOSH, WI  12/04 20:00 CST 2.51 --     --- 
04083515 HAWTHORNE DR STORM SEWER AT FOND DU LAC, WI 
      [BUBBLER, BIRCH]  12/04 20:00 CST 0.04 --     --- 
      [BUBBLER, HOLLY]  12/04 20:00 CST 0.00 --     --- 
      [HAWTHORNE]  12/04 20:00 CST 0.00 --     --- 
04084255 LAKE WINNEBAGO NEAR STOCKBRIDGE, WI  12/31 00:00 CST 1.94 --     --- 
04084445 FOX RIVER AT APPLETON, WI  12/04 20:00 CST -- 8,400 4,160 
      [PIER]  12/04 20:00 CST 5.88 --     --- 
      [UPSTREAM]  12/04 20:00 CST 6.13 --     --- 
04084911 PLUM CREEK NEAR WRIGHTSTOWN, WI  12/04 20:00 CST 2.39 Ice 2.90 
04084927 WEST PLUM CREEK AT NEW ROAD NEAR WRIGHTSTOWN, WI  12/04 20:00 CST 3.19 1.10 4.50 
04085068 ASHWAUBENON CREEK NEAR LITTLE RAPIDS, WI  12/04 20:00 CST 3.23 --     --- 
      [(2)]  12/04 20:00 CST -- Ice 6.30 
040850684 ASHWAUBENON CREEK AT GRANT ST NR WEST DEPERE, WI  12/04 20:00 CST 3.94 1.57     --- 
04085074 DUTCHMAN CREEK AT CYRUS ST NR ASHWAUBENON, WI  12/04 20:00 CST 4.36 Ice 8.20 
04085078 DUTCHMAN CREEK AT HANSEN RD AT ASHWAUBENON, WI  12/04 20:00 CST 4.59 1.43 20.0 
04085108 EAST RIVER @ CNTY TRUNK HIGHWAY ZZ NR GREENLEAF,WI  12/04 20:00 CST -- Ice 7.30 
      [BUBBLER Stage]  12/04 20:00 CST 4.96 --     --- 
040851385 FOX RIVER AT OIL TANK DEPOT AT GREEN BAY, WI 
      [(2)]  12/04 20:20 CST -- 2,060 4,350 
      [PS-2]  12/04 20:20 CST 581.80 --     --- 
04085200 KEWAUNEE RIVER NEAR KEWAUNEE, WI  12/04 20:00 CST 8.98 44.8 35.0 
04085427 MANITOWOC RIVER AT MANITOWOC, WI  12/04 20:00 CST 5.29 353 140 
04086000 SHEBOYGAN RIVER AT SHEBOYGAN, WI  12/04 20:00 CST 2.55 282 120 
04086500 CEDAR CREEK NEAR CEDARBURG, WI  12/04 20:00 CST 5.74 64.7 42.0 
04086600 MILWAUKEE RIVER NEAR CEDARBURG, WI  12/04 20:00 CST 6.38 --     --- 
      [(3)]  12/04 20:00 CST -- 469 342 
040869416 LINCOLN CREEK @ SHERMAN BOULEVARD AT MILWAUKEE, WI  12/04 20:00 CST 3.57 2.01 2.80 
04087000 MILWAUKEE RIVER AT MILWAUKEE, WI  12/04 20:00 CST -- 545 247 
      [15-min Interval]  12/04 20:00 CST 2.52 --     --- 
04087030 MENOMONEE RIVER AT MENOMONEE FALLS, WI  12/04 19:45 CST 3.23 15.9 16.0 
04087050 LITTLE MENOMONEE RIVER NEAR FREISTADT, WI  12/04 20:00 CST 2.13 2.72 1.90 
04087070 LITTLE MENOMONEE RIVER AT MILWAUKEE, WI  12/04 20:00 CST 3.85 6.39 5.80 
0408708567 UNDERWOOD CREEK AT UNNAMED ROAD, ELM GROVE, WI  12/04 20:00 CST 16.48 3.77     --- 
040870860 UNDERWOOD CREEK AT W BLUE MOUND RD, ELM GROVE, WI  12/04 20:00 CST 12.26 --     --- 
      [(3)]  12/04 20:00 CST -- 2.32     --- 
04087087 UNDERWOOD CREEK AT 115TH STREET AT WAUWATOSA, WI  12/04 20:00 CST 8.74 6.73     --- 
040870876 UNDERWOOD CR ON BIKE PATH/Rt 100, WEST ALLIS, WI.  12/04 20:00 CST 2.57 --     --- 
04087088 UNDERWOOD CREEK AT WAUWATOSA, WI  12/04 20:00 CST 8.16 4.15 6.60 
04087119 HONEY CREEK AT WAUWATOSA, WI  12/04 20:05 CST 9.80 4.62 2.60 
04087120 MENOMONEE RIVER AT WAUWATOSA, WI  12/04 19:45 CST 1.93 49.3 45.0 
04087142 MENOMONEE RIVER AT 16TH STREET AT MILWAUKEE, WI  12/04 20:00 CST 15.30 --     --- 
      [Q-Vel]  12/04 20:00 CST -- -166 78.0 
040871473 WILSON PARK CREEK AT GMIA INFALL AT MILWAUKEE, WI  12/04 14:10 CST 10.63 0.09 .24 
040871475 WILSON PARK CREEK @ GMIA OUTFALL #7 @ MILWAUKEE,WI  12/04 20:20 CST 10.89 0.88 1.00 
040871476 HOLMES AVE CRK TRIB @ GMIA OUTFALL #1 AT MILWAUKEE  12/04 20:00 CST 0.10 0.00     --- 
040871488 WILSON PARK CK @ ST. LUKES HOSPITAL @ MILWAUKEE,WI  12/04 12:00 CST 11.10 2.14 4.40 
04087159 KINNICKINNIC RIVER @ S. 11TH STREET @ MILWAUKEE,WI  12/04 20:00 CST 6.20 5.44 8.20 
04087170 MILWAUKEE RIVER AT MOUTH AT MILWAUKEE, WI  12/04 20:00 CST 10.82 --     --- 
      [FINAL]  12/04 20:00 CST -- 354 483 
04087204 OAK CREEK AT SOUTH MILWAUKEE, WI  12/04 20:00 CST 2.46 8.74 9.50 
04087214 ROOT RIVER AT GRANGE AVENUE AT GREENFIELD, WI  12/04 20:00 CST 10.60 3.10 4.40 
04087220 ROOT RIVER NEAR FRANKLIN, WI  12/04 20:00 CST 2.27 19.4 19.0 
04087233 ROOT RIVER CANAL NEAR FRANKLIN, WI  12/04 20:00 CST 2.35 5.37 19.0 
04087234 ROOT RIVER AT 60TH ST NEAR CALEDONIA, WI  12/04 20:00 CST 4.00 43.5 33.0 
04087240 ROOT RIVER AT RACINE, WI  12/04 20:00 CST 2.71 57.5 75.0 
04087257 PIKE RIVER NEAR RACINE, WI  12/04 20:00 CST 1.35 10.0 17.0 
05331833 NAMEKAGON RIVER AT LEONARDS, WI  12/04 20:00 CST 1.84 124 113 
05333500 ST. CROIX RIVER NEAR DANBURY, WI  12/04 20:00 CST 1.43 1,290 1,060 
05340500 ST. CROIX RIVER AT ST. CROIX FALLS, WI  12/04 20:00 CST 3.66 3,880 2,600 
05341752 WILLOW RIVER @ WILLOW R STATE PARK NR BURKHARDT,WI  12/04 20:00 CST 3.94 166 143 
05342000 KINNICKINNIC RIVER NEAR RIVER FALLS, WI  12/04 20:00 CST 8.63 125 106 
05344490 ST. CROIX RIVER AT PRESCOTT, WI  12/04 20:30 CST 25.72 921 4,100 
05344500 MISSISSIPPI RIVER AT PRESCOTT, WI  12/04 20:30 CST -- 10,200 9,890 
    12/04 20:15 CST 25.70 --     --- 
05356000 CHIPPEWA RIVER AT BISHOPS BRIDGE NEAR WINTER, WI  12/04 20:00 CST 4.99 626 902 
05356500 CHIPPEWA RIVER NEAR BRUCE, WI  12/04 20:00 CST 2.49 Ice 1,290 
05357205 ALLEQUASH CREEK NEAR SAYNER, WI  12/04 20:00 CST 0.83 --     --- 
05357206 ALLEQUASH CREEK SITE NO. 3 NR BOULDER JUNCTION, WI 
      [DOWNSTREAM]  12/04 20:00 CST -- 3.79 3.80 
      [Gage Height]  12/04 20:00 CST 0.51 --     --- 
05357215 ALLEQUASH CREEK @ CT HWY M NR BOULDER JUNCTION, WI  12/04 20:00 CST -- 12.0 11.0 
      [Gage Height]  12/04 20:00 CST 1.54 --     --- 
05357225 STEVENSON CREEK @ CT HWY M NR BOULDER JUNCTION, WI  12/04 20:00 CST -- 5.39 3.20 
      [Gage Height]  12/04 20:00 CST 8.08 --     --- 
05357230 NORTH CREEK AT TROUT LAKE NEAR BOULDER JUNCTION,WI  12/04 20:00 CST -- 3.71 2.70 
      [Gage Height]  12/04 20:00 CST 8.00 --     --- 
05357245 TROUT RIVER AT TROUT LAKE NEAR BOULDER JUNCTION,WI  12/04 20:00 CST -- 47.0 37.0 
      [Gage Height]  12/04 20:00 CST 1.35 --     --- 
05357335 BEAR RIVER NEAR MANITOWISH WATERS, WI  12/04 20:15 CST 3.72 80.4 47.0 
05359500 SOUTH FORK FLAMBEAU RIVER NEAR PHILLIPS, WI  12/04 17:00 CST 5.67 443 566 
05360500 FLAMBEAU RIVER NEAR BRUCE, WI  12/04 20:15 CST 6.75 1,920 1,400 
05362000 JUMP RIVER AT SHELDON, WI  12/04 20:00 CST 3.64 Ice 160 
05365500 CHIPPEWA RIVER AT CHIPPEWA FALLS, WI  12/04 20:00 CST 5.15 4,780 3,040 
05365550 CHIPPEWA RIVER BELOW DELLS DAM AT EAU CLAIRE, WI 
      [(2)]  12/04 20:00 CST -- 4,060 4,780 
      [BUBBLER]  12/04 20:00 CST 6.32 --     --- 
05366800 CHIPPEWA R AT GRAND AVE AT EAU CLAIRE, WI  12/04 20:00 CST 4.99 4,600 5,940 
053674967 TROUT CREEK AT TENTH STREET NEAR BLOOMER, WI  12/04 20:15 CST 3.81 15.7 15.0 
05367500 RED CEDAR RIVER NEAR COLFAX, WI  12/04 20:00 CST 2.92 Ice 600 
05368000 HAY RIVER AT WHEELER, WI  12/04 20:15 CST 4.00 Ice 223 
05369000 RED CEDAR RIVER AT MENOMONIE, WI  12/04 20:00 CST 7.05 1,430 1,010 
05369500 CHIPPEWA RIVER AT DURAND, WI  12/04 20:00 CST 4.20 6,540 5,050 
05370000 EAU GALLE RIVER AT SPRING VALLEY, WI  12/04 20:45 CST 12.38 23.6 17.0 
05378500 MISSISSIPPI RIVER AT WINONA, MN  12/04 20:45 CST 5.45 --     --- 
    12/04 20:15 CST -- 24,000 18,000 
05379400 TREMPEALEAU RIVER AT ARCADIA, WI  12/04 20:00 CST -- 371 299 
      [Current Stage]  12/04 20:00 CST 3.61 --     --- 
05379500 TREMPEALEAU RIVER AT DODGE, WI  12/04 20:45 CST -- 523 337 
      [Current Stage]  12/04 20:45 CST 5.73 --     --- 
05381000 BLACK RIVER AT NEILLSVILLE, WI  12/04 20:15 CST 3.43 Ice 164 
053813595 BLACK RIVER DS ST HWY 54 AT BLACK RIVER FALLS, WI  12/04 20:00 CST 36.44 546 522 
05382000 BLACK RIVER NEAR GALESVILLE, WI  12/04 20:45 CST -- 1,310 895 
      [Final Stage]  12/04 20:45 CST 4.38 --     --- 
05382255 STILLWELL CREEK AT SIXTEENTH COURT NEAR TOMAH, WI  12/04 20:00 CST 1.51 --     --- 
    08/28 10:00 CDT -- *** 1.60 
05382257 STILLWELL CREEK AT YARD ROAD NEAR TOMAH, WI  12/04 20:00 CST 2.21 4.44 1.80 
05382267 LA CROSSE RIVER @ CNTY TRUNK HIGHWY BB NR TOMAH,WI  12/04 20:00 CST 6.41 77.2 67.0 
05382284 SILVER CREEK AT STATE HIGHWAY 21 NEAR ANGELO, WI  12/04 20:00 CST 5.84 42.8 38.0 
05382325 LA CROSSE RIVER AT SPARTA, WI  12/04 20:15 CST 3.82 192 153 
05383075 LA CROSSE RIVER NEAR LA CROSSE, WI  12/04 20:00 CST 2.96 441 359 
05386400 MISSISSIPPI RIVER AT BROWNSVILLE, MN  12/04 20:45 CST 30.81 --     --- 
05389500 Mississippi River at McGregor, IA 
      [stage-only period of record]  12/04 20:45 CST 7.87 --     --- 
05390500 ANVIL LAKE NEAR EAGLE RIVER, WI 
      [(2)]  12/04 20:30 CST 95.52 --     --- 
05391000 WISCONSIN RIVER @ RAINBOW LAKE NR LAKE TOMAHAWK,WI  12/04 20:00 CST 3.18 1,170 737 
05393500 SPIRIT RIVER AT SPIRIT FALLS, WI  12/04 20:30 CST 1.66 29.6 31.0 
05394500 PRAIRIE RIVER NEAR MERRILL, WI  12/04 20:15 CST 2.46 150 120 
05395000 WISCONSIN RIVER AT MERRILL, WI  12/04 20:15 CST 5.40 2,780 2,070 
05396000 BIG RIB RIVER AT RIB FALLS, WI  12/04 20:00 CST 2.37 103 65.0 
05397500 EAU CLAIRE RIVER AT KELLY, WI  12/04 20:00 CST 1.10 246 140 
05398000 WISCONSIN RIVER AT ROTHSCHILD, WI  12/04 20:40 CST 14.03 --     --- 
      [SLOPE-SLPQ]  12/04 20:20 CST -- 3,160 3,200 
05398100 WISCONSIN RIVER AT MOSINEE, WI  12/04 20:20 CST 11.74 --     --- 
05399500 BIG EAU PLEINE RIVER AT STRATFORD, WI  12/04 20:00 CST 2.70 35.2 25.0 
05400625 LITTLE PLOVER RIVER NEAR PLOVER, WI  12/04 20:00 CST 3.45 5.61 6.00 
05400760 WISCONSIN RIVER AT WISCONSIN RAPIDS, WI  12/04 20:30 CST 3.26 --     --- 
      [(5)]  12/04 20:30 CST -- 4,430     --- 
05401034 S.BR.TENMILE CREEK NEAR BANCROFT, WI  12/04 20:00 CST 3.66 14.9     --- 
05401050 TENMILE CREEK NEAR NEKOOSA, WI  12/04 20:00 CST 5.01 82.3 54.0 
05401063 LAKE HURON NEAR PLAINFIELD, WI  12/04 20:00 CST 99.31 --     --- 
05401065 LONG LAKE NEAR PLAINFIELD, WI  12/04 20:45 CST 17.82 --     --- 
05401067 PLAINFIELD LAKE NEAR PLAINFIELD, WI  12/04 20:00 CST 17.10 --     --- 
05401514 BIG ROCHE A CRI CREEK AT HWY G NR LEOLA, WI  12/04 20:00 CST 4.04 25.0     --- 
05402000 YELLOW RIVER AT BABCOCK, WI  12/04 20:00 CST 2.27 42.6     --- 
05403000 YELLOW RIVER AT NECEDAH, WI  12/04 20:00 CST 10.18 370 180 
05403202 WISCONSIN R BELOW CASTLE ROCK DAM NR MAUSTON, WI  12/04 20:45 CST 11.75 --     --- 
05403500 LEMONWEIR RIVER AT NEW LISBON, WI  12/04 20:00 CST 5.23 454 271 
05404000 WISCONSIN RIVER NEAR WISCONSIN DELLS, WI  12/04 20:15 CST 4.14 7,110 4,810 
05404129 BARABOO RIVER AT LA VALLE, WI  12/04 20:00 CST 6.30 --     --- 
05404140 W BRANCH BIG CREEK AT CLARK RD NR LA VALLE, WI  12/04 20:00 CST 2.99 6.22     --- 
05404147 BIG CREEK OUTLET AT LAKE REDSTONE NR LA VALLE, WI  12/04 19:45 CST 2.71 21.2     --- 
05404150 E BRANCH BIG CREEK AT LAVALLE RD NR LA VALLE, WI  12/04 20:00 CST 2.40 7.36     --- 
054041665 BARABOO RIVER AT MAIN STREET AT REEDSBURG, WI  12/04 20:00 CST 6.88 --     --- 
05404500 DEVILS LAKE NEAR BARABOO, WI  12/04 20:00 CST 7.95 --     --- 
05405000 BARABOO RIVER NEAR BARABOO, WI  12/04 20:00 CST 8.70 434 260 
05406457 BLACK EARTH CREEK NR BREWERY RD AT CROSS PLAINS,WI  12/04 20:00 CST 2.18 16.9 13.0 
05406469 BREWERY CREEK-UPSTREAM SITE-AT CROSS PLAINS, WI  12/04 20:00 CST 2.92 9.43 2.70 
05406479 BLACK EARTH CK NR TREATMENT PLNT @ CROSS PLAINS,WI  12/04 20:00 CST 3.41 26.9 24.0 
05406500 BLACK EARTH CREEK AT BLACK EARTH, WI  12/04 20:00 CST 2.27 57.8 35.0 
05407000 WISCONSIN RIVER AT MUSCODA, WI  12/04 20:00 CST -- 9,350 6,410 
      [FINAL]  12/04 20:00 CST 2.53 --     --- 
05407468 KICKAPOO R @ ST HWY 131 AT ONTARIO, WI  12/04 20:45 CST 8.89 88.9     --- 
05408000 KICKAPOO RIVER AT LA FARGE, WI  12/04 20:00 CST 3.60 235 141 
05410490 KICKAPOO RIVER AT STEUBEN, WI  12/04 20:45 CST 7.51 725 503 
05411500 Mississippi River at Clayton, IA  12/04 20:45 CST 11.90 --     --- 
05413500 GRANT RIVER AT BURTON, WI  12/04 20:15 CST -- 288 118 
      [BUBBLER STAGE]  12/04 20:15 CST 6.44 --     --- 
      [PRIMARY STAGE]  12/04 20:15 CST 6.44 --     --- 
05414000 PLATTE RIVER NEAR ROCKVILLE, WI  12/04 20:15 CST -- 130 65.0 
      [Primary Stage]  12/04 20:15 CST 4.30 --     --- 
05423500 SOUTH BRANCH ROCK RIVER AT WAUPUN, WI  12/04 20:00 CST 2.61 48.6 12.0 
05424057 ROCK RIVER AT HORICON, WI  12/04 20:00 CST 6.88 --     --- 
      [(4)]  12/04 20:00 CST -- 658 176 
05425500 ROCK RIVER AT WATERTOWN, WI  12/04 20:00 CST 3.02 1,170 344 
05425912 BEAVERDAM RIVER AT BEAVER DAM, WI  12/04 20:00 CST 840.12 157 51.0 
05426000 CRAWFISH RIVER AT MILFORD, WI  12/04 20:15 CST 3.31 770 209 
05426067 BARK RIVER AT NAGAWICKA ROAD AT DELAFIELD, WI  12/04 20:00 CST 12.58 24.6 24.0 
05426250 BARK RIVER NEAR ROME, WI  12/04 20:15 CST 2.21 96.6 86.0 
05427085 ROCK RIVER AT ROBERT STREET AT FORT ATKINSON, WI  12/04 20:00 CST 12.48 2,920 1,050 
05427235 LAKE KOSHKONONG NEAR NEWVILLE, WI  12/04 20:15 CST 7.21 --     --- 
05427530 ROCK RIVER AT NEWVILLE, WI  12/04 20:05 CST 3.56 --     --- 
      [(4)]  12/04 20:05 CST -- 2,570 1,660 
05427718 YAHARA RIVER AT WINDSOR, WI  12/04 20:00 CST 1.47 15.0 18.0 
05427850 YAHARA RIVER AT STATE HIGHWAY 113 AT MADISON, WI  12/04 20:00 CST 9.25 --     --- 
      [(4)]  12/04 20:00 CST -- 98.5 73.0 
05427880 SIXMILE CREEK AT STATE HIGHWAY 19 NEAR WAUNAKEE,WI  12/04 20:00 CST 2.98 15.2 14.0 
05427910 SIXMILE CREEK @ COUNTY TRNK HGHWY M NR WAUNAKEE,WI  12/04 20:00 CST 9.49 --     --- 
      [PRIMARY]  12/04 20:00 CST -- 69.1 35.0 
05427927 DORN (SPRING) CREEK @ CT HIGHWAY Q NR WAUNAKEE, WI  12/04 20:00 CST 0.45 8.38 6.30 
05427930 DORN (SPRING) CREEK AT CT HIGHWAY M NR WAUNAKEE,WI  12/04 20:00 CST 9.95 12.2 9.70 
05427943 PHEASANT BRANCH AT AIRPORT ROAD NEAR MIDDLETON, WI  12/04 20:00 CST 3.94 4.17 1.50 
054279465 S FORK PHEASANT BRANCH @ DEMING WAY @ MIDDLETON,WI  12/04 20:00 CST 2.06 0.10 .71 
05427948 PHEASANT BRANCH AT MIDDLETON, WI  12/04 20:00 CST 3.67 5.29 2.20 
05427965 SPRING HARBOR STORM SEWER AT MADISON, WI 
      [(2)]  12/04 20:00 CST -- 0.12 .070 
      [BUBBLER]  12/04 20:00 CST 0.45 --     --- 
05428000 LAKE MENDOTA AT MADISON, WI 
      [(2)]  12/04 20:00 CST 9.18 --     --- 
05428500 YAHARA RIVER AT EAST MAIN STREET AT MADISON, WI  12/04 19:45 CST 6.11 404 272 
05429000 LAKE MONONA AT MADISON, WI  12/04 20:00 CST 5.58 --     --- 
05429485 LAKE WAUBESA AT MC FARLAND, WI  12/04 19:30 CST 5.23 --     --- 
05429500 YAHARA RIVER AT MC FARLAND, WI 
      [(4)]  12/04 19:30 CST -- 555 186 
05429700 YAHARA RIVER @ FORTON STREET BRIDGE @ STOUGHTON,WI  12/04 20:00 CST 6.72 610 374 
05430150 BADFISH CREEK NEAR COOKSVILLE, WI  12/04 20:00 CST 5.11 100 102 
05430175 YAHARA RIVER NEAR FULTON, WI  12/04 20:00 CST 5.28 694 450 
05430500 ROCK RIVER AT AFTON, WI  12/04 20:00 CST 6.39 3,610 1,570 
05431016 JACKSON CREEK AT MOUND ROAD NEAR ELKHORN, WI  12/04 20:00 CST 8.53 10.5 4.20 
05431486 TURTLE CREEK AT CARVERS ROCK ROAD NEAR CLINTON, WI  12/04 20:00 CST 4.15 165 92.0 
05432500 PECATONICA RIVER AT DARLINGTON, WI  12/04 20:15 CST 3.54 239 121 
05433000 EAST BRANCH PECATONICA RIVER NR BLANCHARDVILLE, WI  12/04 20:00 CST 5.26 205 115 
05434500 PECATONICA RIVER AT MARTINTOWN, WI  12/04 20:00 CST 6.80 959 519 
05435943 BADGER MILL CREEK AT VERONA, WI  12/04 20:00 CST -- 10.5 11.0 
      [Current Stage]  12/04 20:00 CST 4.69 --     --- 
05435950 SUGAR RIVER NEAR VERONA, WI  12/04 20:00 CST 3.13 59.2 69.0 
05436500 SUGAR RIVER NEAR BRODHEAD, WI  12/04 20:00 CST 1.60 462 283 
05438283 PISCASAW CREEK NEAR WALWORTH, WI  12/04 20:15 CST 5.25 4.64 1.90 
05543830 FOX RIVER AT WAUKESHA, WI  12/04 20:00 CST 3.16 91.6 72.0 
05544200 MUKWONAGO RIVER AT MUKWONAGO, WI  12/04 20:15 CST 2.68 86.0 59.0 
05544348 FOX RIVER AT WATERFORD DAM, AT WATERFORD, WI  12/04 20:45 CST 1.67 --     --- 
05544385 MUSKEGO (BIG MUSKEGO) LAKE OUTLET NR WIND LAKE, WI 
      TAILWATER (BASE), [Tailwater]  12/04 20:45 CST 8.31 --     --- 
      [Headwater]  12/04 20:45 CST 11.78 --     --- 
05544475 FOX RIVER AT ROCHESTER, WI  12/04 20:45 CST 4.59 --     --- 
055451345 WHITE RIVER AT CENTER STREET AT LAKE GENEVA, WI  12/04 20:00 CST 8.14 20.0 17.0 
05545750 FOX RIVER NEAR NEW MUNSTER, WI  12/04 20:00 CST 6.81 647 460 
423000088164401 ELIZABETH LAKE AT TWIN LAKES, WI-IL 
      [Above Sea Level]  12/04 20:30 CST 794.09 --     --- 
423130088155001 LAKE MARY NEAR TWIN LAKES, WI-IL 
      [Above Sea Level]  12/04 20:45 CST 794.27 --     --- 
423525088260400 GENEVA LAKE AT LAKE GENEVA, WI  12/04 20:00 CST 2.50 --     --- 
423645088595501 DISCOVERY FARMS CORE WATERWY AR2 NR JANESVILLE, WI  12/04 15:30 CST 0.00 0.00000     --- 
423740088592701 DISCOVERY FARMS CORE WATERWY AR1 NR JANESVILLE, WI  12/04 20:00 CST 0.00 0.00000     --- 
423954089071501 DISCOVERY FARMS CORE WATERWAY 1 NR JANESVILLE, WI  12/04 20:00 CST -0.00 0.00000     --- 
424008089050201 DISCOVERY FARMS CORE WATERWAY 5 NR JANESVILLE, WI  12/04 20:00 CST -0.00 0.00000     --- 
424848088083100 WIND LAKE AT OUTLET AT WIND LAKE, WI 
      TAILWATER, [Tailwater]  12/04 20:15 CST 4.92 --     --- 
      [Headwater]  12/04 20:15 CST 7.70 --     --- 
425715089164700 LAKE KEGONSA AT BARBER DRIVE NEAR STOUGHTON, WI  12/04 20:00 CST 3.47 --     --- 
430310089262901 SW COMMUTER PATH STORM SEWER AT MADISON, WI  12/04 20:00 CST 0.00 --     --- 
430319089262101 GLEN DR STORM SEWER AT MADISON, WI  12/04 20:00 CST 0.01 --     --- 
430320089264001 WESTMORLAND PARK STORM SEWER AT MADISON, WI  12/04 20:00 CST 0.00 --     --- 
430338089295701 DETENTION POND OUTLET AT MEMORIAL HS @ MADISON, WI  12/04 20:00 CST 0.00 0.00     --- 
430347089273001 SOUTH SEGOE RD STORM SEWER AT MADISON, WI  12/04 20:00 CST 0.00 --     --- 
      [AV Regression]  12/04 12:21 CST -- 0.40     --- 
433821090063801 DISCOVERY FARMS WATERWAY RS2 NEAR MAUSTON, WI  12/04 20:00 CST 0.00 0.00000     --- 
433939090050501 DISCOVERY FARMS WATERWAY RS1 NEAR MAUSTON, WI  12/04 20:00 CST 0.02 0.00000     --- 
434840089000001 GREEN LAKE AT GREEN LAKE, WI  12/04 20:00 CST 6.35 --     --- 
435857089325301 PLEASANT LAKE NEAR WESTFIELD, WI  12/04 20:00 CST 14.44 --     --- 
441520088045001 GLRI EAST RIVER WATERWAY 3 NEAR GREENLEAF, WI  12/04 20:00 CST 0.01 --     --- 
      [COMBINED]  12/04 20:00 CST -- 0.00126     --- 
441520088045002 GLRI EAST RIVER TILE 1 NEAR GREENLEAF, WI  12/04 20:00 CST 0.12 0.00688 .010 
441546088082001 GLRI EAST RIVER WATERWAY NUMBER 2 NR GREENLEAF, WI  12/04 20:00 CST -0.04 0.00000     --- 
441748088133701 TRT WETLAND ONE SURFACE INLET NR KAUKAUNA, WI  12/04 17:15 CST 0.00 --     --- 
      [STGQ]  12/04 17:15 CST -- 0.00087     --- 
441748088133702 TRT WETLAND ONE DRAIN TILE INLET NR KAUKAUNA, WI 
      [STGQ]  12/04 17:18 CST -- 0.00110     --- 
441748088133703 TRT WETLAND ONE SED BASIN OUTLET NR KAUKAUNA, WI  12/04 17:15 CST 0.08 --     --- 
441748088133704 TRT WETLAND ONE OUTLET NR KAUKAUNA, WI  10/29 12:20 CDT 6.82 --     --- 
      [CR Q-Vel Computed]  10/29 12:20 CDT -- 0.01     --- 
442114088085701 GLRI WATERWAY NUMBER 5 NR WRIGHTSTOWN, WI  12/04 20:00 CST 0.02 --     --- 
      [FINAL]  12/04 20:00 CST -- 0.00495     --- 
442119088085501 GLRI WATERWAY NUMBER 4 NR WRIGHTSTOWN, WI  12/04 20:00 CST -0.00 --     --- 
      [COMBINED]  12/04 20:00 CST -- 0.00000     --- 
442155087330001 DISCOVERY FARMS WATERWAY KD2 NEAR KEWAUNEE, WI  12/04 20:00 CST 0.00 0.00000     --- 
442405087414401 DISCOVERY FARMS WATERWAY KD1 NEAR KEWAUNEE, WI  12/04 20:00 CST -- 0.00000     --- 
      [BUBBLER]  12/04 20:00 CST 0.00 --     --- 
442944087354100 DISCOVERY FARMS WATERWAY SITE NO. 1 NR KEWAUNEE,WI  10/18 23:00 CDT -- 0.00000     --- 
444049087424302 GLRI BIOREACTOR INLET NR DUVALL,WI  12/04 20:01 CST 1.09 0.00     --- 
444049087424303 GLRI BIOREACTOR OUTLET NR DUVALL, WI  12/04 20:01 CST 0.16 --     --- 
      [FIANL, PRIMARY]  12/04 20:01 CST -- 0.00     --- 
445322088281801 BERRY LAKE NEAR SHAWANO, WI  12/04 20:00 CST 95.85 --     --- 
451021089064901 DISCOVERY FARMS WATERWAY AO1 NEAR ANTIGO, WI  12/04 20:00 CST -0.00 0.00000     --- 
451207089041801 DISCOVERY FARMS WATERWAY AO2 NEAR ANTIGO, WI  12/04 20:00 CST 0.00 0.00000     --- 
463741090521301 ASHLAND BREAKWATER LIGHTHOUSE CHEQUAMEGON BAY, WI 
      [2 min ave]  12/04 20:00 CST 603.01 --     --- 
464646092052900 SUPERIOR BAY DULUTH SHIP CANAL AT DULUTH, MN  12/04 20:40 CST -- 7,980     --- 
      [Accubar]  12/04 20:40 CST 602.74 --     --- 

Data status codes:
  ***     Temporarily unavailable
  --     Parameter not determined
  Ice     Ice affected